createdAt,value
2022-12-12T00:02:23.312Z,98294.47
2022-12-12T00:04:51.807Z,98290.94
2022-12-12T00:07:21.557Z,98286.34
2022-12-12T00:09:49.925Z,98289.84
2022-12-12T00:12:18.301Z,98289.06
2022-12-12T00:14:46.634Z,98292.00
2022-12-12T00:17:15.108Z,98286.00
2022-12-12T00:19:44.157Z,98296.03
2022-12-12T00:22:12.578Z,98290.00
2022-12-12T00:24:42.305Z,98297.59
2022-12-12T00:27:10.630Z,98295.94
2022-12-12T00:29:39.064Z,98304.34
2022-12-12T00:32:07.504Z,98303.28
2022-12-12T00:34:35.896Z,98308.44
2022-12-12T00:37:04.283Z,98306.88
2022-12-12T00:39:32.637Z,98301.81
2022-12-12T00:42:02.363Z,98309.22
2022-12-12T00:44:30.750Z,98306.81
2022-12-12T00:46:59.110Z,98308.78
2022-12-12T00:49:28.052Z,98302.59
2022-12-12T00:51:56.385Z,98307.56
2022-12-12T00:54:24.905Z,98305.97
2022-12-12T00:56:53.389Z,98317.19
2022-12-12T00:59:23.200Z,98320.47
2022-12-12T01:01:51.660Z,98317.50
2022-12-12T01:04:20.030Z,98323.50
2022-12-12T01:06:48.461Z,98332.75
2022-12-12T01:09:16.830Z,98330.03
2022-12-12T01:11:45.211Z,98330.03
2022-12-12T01:14:13.758Z,98331.91
2022-12-12T01:16:43.610Z,98332.75
2022-12-12T01:19:11.963Z,98332.75
2022-12-12T01:21:40.342Z,98328.06
2022-12-12T01:24:08.893Z,98335.28
2022-12-12T01:26:38.057Z,98337.69
2022-12-12T01:29:06.457Z,98334.31
2022-12-12T01:31:34.822Z,98333.41
2022-12-12T01:34:04.656Z,98333.56
2022-12-12T01:36:33.091Z,98323.91
2022-12-12T01:39:01.463Z,98324.56
2022-12-12T01:41:29.917Z,98319.78
2022-12-12T01:44:02.350Z,98329.41
2022-12-12T01:46:46.191Z,98324.81
2022-12-12T01:49:24.701Z,98323.56
2022-12-12T01:51:59.243Z,98328.09
2022-12-12T01:54:32.755Z,98328.00
2022-12-12T01:57:06.282Z,98330.13
2022-12-12T01:59:36.604Z,98332.25
2022-12-12T02:02:05.845Z,98325.41
2022-12-12T02:04:36.049Z,98324.50
2022-12-12T02:07:05.156Z,98331.09
2022-12-12T02:09:34.762Z,98322.28
2022-12-12T02:12:03.251Z,98330.56
2022-12-12T02:14:36.048Z,98338.56
2022-12-12T02:17:50.229Z,98334.69
2022-12-12T02:20:56.943Z,98332.59
2022-12-12T02:24:33.157Z,98335.69
2022-12-12T02:27:57.823Z,98339.81
2022-12-12T02:30:34.272Z,98333.22
2022-12-12T02:33:30.182Z,98339.34
2022-12-12T02:36:13.880Z,98328.41
2022-12-12T02:38:53.692Z,98337.00
2022-12-12T02:41:32.773Z,98339.38
2022-12-12T02:44:15.830Z,98331.44
2022-12-12T02:46:53.736Z,98339.13
2022-12-12T02:49:29.205Z,98335.69
2022-12-12T02:52:00.490Z,98338.75
2022-12-12T02:54:29.310Z,98332.88
2022-12-12T02:57:00.522Z,98333.22
2022-12-12T02:59:34.145Z,98344.66
2022-12-12T03:02:42.655Z,98347.81
2022-12-12T03:05:50.252Z,98345.00
2022-12-12T03:08:39.429Z,98347.81
2022-12-12T03:11:12.061Z,98355.38
2022-12-12T03:13:48.580Z,98350.41
2022-12-12T03:16:27.450Z,98349.25
2022-12-12T03:19:05.785Z,98350.28
2022-12-12T03:21:44.459Z,98351.59
2022-12-12T03:24:26.799Z,98349.69
2022-12-12T03:27:00.558Z,98353.25
2022-12-12T03:29:33.804Z,98356.41
2022-12-12T03:32:10.237Z,98353.13
2022-12-12T03:34:43.605Z,98352.28
2022-12-12T03:37:20.841Z,98347.13
2022-12-12T03:39:57.430Z,98350.91
2022-12-12T03:42:31.324Z,98352.53
2022-12-12T03:45:06.840Z,98357.94
2022-12-12T03:47:42.465Z,98346.88
2022-12-12T03:50:17.797Z,98353.94
2022-12-12T03:52:53.328Z,98359.50
2022-12-12T03:55:28.918Z,98362.31
2022-12-12T03:58:02.205Z,98355.72
2022-12-12T04:00:37.281Z,98361.84
2022-12-12T04:03:15.810Z,98359.84
2022-12-12T04:06:11.692Z,98366.78
2022-12-12T04:09:02.360Z,98359.59
2022-12-12T04:12:13.383Z,98349.09
2022-12-12T04:15:15.367Z,98355.69
2022-12-12T04:17:55.403Z,98356.63
2022-12-12T04:20:48.616Z,98352.97
2022-12-12T04:23:29.012Z,98367.47
2022-12-12T04:26:28.926Z,98358.84
2022-12-12T04:29:08.475Z,98358.59
2022-12-12T04:31:42.930Z,98349.19
2022-12-12T04:34:17.594Z,98344.91
2022-12-12T04:36:48.842Z,98353.41
2022-12-12T04:39:20.661Z,98351.84
2022-12-12T04:41:53.973Z,98357.41
2022-12-12T04:44:24.801Z,98352.78
2022-12-12T04:46:57.675Z,98356.78
2022-12-12T04:49:30.389Z,98367.31
2022-12-12T04:52:03.884Z,98370.72
2022-12-12T04:54:41.258Z,98372.41
2022-12-12T04:57:16.523Z,98371.91
2022-12-12T04:59:45.414Z,98363.53
2022-12-12T05:02:25.514Z,98363.28
2022-12-12T05:05:00.198Z,98374.25
2022-12-12T05:07:40.036Z,98373.16
2022-12-12T05:10:12.793Z,98376.72
2022-12-12T05:12:46.470Z,98368.09
2022-12-12T05:15:16.426Z,98381.16
2022-12-12T05:17:48.913Z,98372.56
2022-12-12T05:20:17.745Z,98376.19
2022-12-12T05:22:46.098Z,98371.94
2022-12-12T05:25:14.893Z,98378.53
2022-12-12T05:27:44.786Z,98381.00
2022-12-12T05:30:14.303Z,98377.69
2022-12-12T05:32:42.661Z,98383.03
2022-12-12T05:35:12.557Z,98378.81
2022-12-12T05:37:41.203Z,98365.59
2022-12-12T05:40:12.705Z,98377.69
2022-12-12T05:42:41.250Z,98390.28
2022-12-12T05:45:13.102Z,98389.13
2022-12-12T05:47:41.884Z,98389.03
2022-12-12T05:50:11.120Z,98398.69
2022-12-12T05:52:39.648Z,98394.09
2022-12-12T05:55:09.228Z,98397.97
2022-12-12T05:57:37.580Z,98393.41
2022-12-12T06:00:08.081Z,98386.88
2022-12-12T06:02:37.974Z,98396.44
2022-12-12T06:05:07.597Z,98400.81
2022-12-12T06:07:35.944Z,98407.28
2022-12-12T06:10:05.611Z,98408.59
2022-12-12T06:12:34.007Z,98404.47
2022-12-12T06:15:02.364Z,98414.47
2022-12-12T06:17:33.362Z,98414.47
2022-12-12T06:20:04.319Z,98416.13
2022-12-12T06:22:32.800Z,98414.47
2022-12-12T06:25:01.140Z,98422.28
2022-12-12T06:27:29.594Z,98418.38
2022-12-12T06:29:57.918Z,98425.56
2022-12-12T06:32:26.247Z,98422.75
2022-12-12T06:34:54.739Z,98421.22
2022-12-12T06:37:24.584Z,98422.75
2022-12-12T06:39:53.535Z,98419.09
2022-12-12T06:42:21.970Z,98428.78
2022-12-12T06:44:50.332Z,98427.22
2022-12-12T06:47:18.745Z,98431.22
2022-12-12T06:49:47.172Z,98441.94
2022-12-12T06:52:15.542Z,98444.31
2022-12-12T06:54:45.258Z,98443.09
2022-12-12T06:57:13.685Z,98444.16
2022-12-12T06:59:42.032Z,98436.25
2022-12-12T07:02:12.368Z,98447.00
2022-12-12T07:04:40.787Z,98453.69
2022-12-12T07:07:09.150Z,98457.25
2022-12-12T07:09:37.591Z,98457.81
2022-12-12T07:12:07.563Z,98463.34
2022-12-12T07:14:35.901Z,98457.72
2022-12-12T07:17:04.297Z,98462.31
2022-12-12T07:19:32.655Z,98463.13
2022-12-12T07:22:07.494Z,98464.75
2022-12-12T07:24:38.202Z,98466.88
2022-12-12T07:27:08.519Z,98466.28
2022-12-12T07:29:36.919Z,98463.84
2022-12-12T07:32:05.908Z,98469.25
2022-12-12T07:34:34.256Z,98468.16
2022-12-12T07:37:03.442Z,98466.53
2022-12-12T07:39:32.587Z,98473.84
2022-12-12T07:42:01.143Z,98467.13
2022-12-12T07:44:30.895Z,98475.25
2022-12-12T07:46:59.899Z,98481.25
2022-12-12T07:49:30.380Z,98471.84
2022-12-12T07:51:58.729Z,98485.16
2022-12-12T07:54:27.110Z,98474.31
2022-12-12T07:56:55.644Z,98476.56
2022-12-12T07:59:24.021Z,98485.88
2022-12-12T08:01:53.870Z,98490.84
2022-12-12T08:04:22.419Z,98483.66
2022-12-12T08:06:56.198Z,98480.25
2022-12-12T08:09:28.201Z,98487.31
2022-12-12T08:11:57.103Z,98483.31
2022-12-12T08:14:25.659Z,98484.50
2022-12-12T08:16:55.475Z,98479.44
2022-12-12T08:19:23.883Z,98479.31
2022-12-12T08:21:52.346Z,98488.88
2022-12-12T08:24:20.771Z,98497.00
2022-12-12T08:26:51.829Z,98501.84
2022-12-12T08:29:20.304Z,98505.97
2022-12-12T08:31:48.930Z,98501.94
2022-12-12T08:34:18.847Z,98513.88
2022-12-12T08:36:47.563Z,98518.81
2022-12-12T08:39:17.555Z,98508.56
2022-12-12T08:41:48.536Z,98503.72
2022-12-12T08:44:18.961Z,98513.03
2022-12-12T08:46:49.049Z,98526.72
2022-12-12T08:49:18.888Z,98521.88
2022-12-12T08:51:47.355Z,98528.97
2022-12-12T08:54:15.939Z,98536.03
2022-12-12T08:56:44.399Z,98535.44
2022-12-12T08:59:13.390Z,98526.84
2022-12-12T09:01:42.353Z,98540.75
2022-12-12T09:04:10.900Z,98550.06
2022-12-12T09:06:40.708Z,98551.03
2022-12-12T09:09:09.121Z,98552.19
2022-12-12T09:11:37.540Z,98555.28
2022-12-12T09:14:06.000Z,98555.84
2022-12-12T09:16:34.493Z,98552.56
2022-12-12T09:19:03.256Z,98551.28
2022-12-12T09:21:31.665Z,98554.56
2022-12-12T09:24:02.066Z,98564.84
2022-12-12T09:26:30.585Z,98556.69
2022-12-12T09:28:59.042Z,98555.16
2022-12-12T09:31:27.502Z,98558.31
2022-12-12T09:33:55.989Z,98560.44
2022-12-12T09:36:24.399Z,98562.56
2022-12-12T09:38:52.788Z,98558.56
2022-12-12T09:41:27.301Z,98554.06
2022-12-12T09:44:00.275Z,98559.38
2022-12-12T09:46:35.811Z,98558.66
2022-12-12T09:49:16.772Z,98553.31
2022-12-12T09:51:49.231Z,98556.16
2022-12-12T09:54:20.645Z,98559.13
2022-12-12T09:57:06.029Z,98549.09
2022-12-12T09:59:43.961Z,98545.88
2022-12-12T10:02:49.424Z,98552.38
2022-12-12T10:05:31.225Z,98553.66
2022-12-12T10:08:11.785Z,98549.97
2022-12-12T10:10:42.946Z,98544.53
2022-12-12T10:13:18.089Z,98549.41
2022-12-12T10:15:50.444Z,98550.81
2022-12-12T10:18:26.212Z,98557.50
2022-12-12T10:21:00.637Z,98559.88
2022-12-12T10:23:38.936Z,98553.34
2022-12-12T10:26:12.718Z,98554.91
2022-12-12T10:28:42.599Z,98559.97
2022-12-12T10:31:30.315Z,98559.91
2022-12-12T10:34:18.625Z,98553.63
2022-12-12T10:37:08.706Z,98562.69
2022-12-12T10:39:51.671Z,98559.34
2022-12-12T10:42:28.798Z,98551.06
2022-12-12T10:45:19.309Z,98555.91
2022-12-12T10:47:49.061Z,98546.88
2022-12-12T10:50:29.772Z,98549.81
2022-12-12T10:52:58.203Z,98552.88
2022-12-12T10:55:40.465Z,98562.44
2022-12-12T10:58:09.075Z,98552.72
2022-12-12T11:00:41.875Z,98542.69
2022-12-12T11:03:28.140Z,98543.84
2022-12-12T11:05:58.249Z,98549.50
2022-12-12T11:08:31.455Z,98543.94
2022-12-12T11:11:06.584Z,98546.97
2022-12-12T11:13:46.373Z,98550.03
2022-12-12T11:16:20.758Z,98551.78
2022-12-12T11:19:01.685Z,98548.81
2022-12-12T11:21:32.928Z,98548.69
2022-12-12T11:24:05.888Z,98540.94
2022-12-12T11:26:44.690Z,98549.75
2022-12-12T11:29:37.475Z,98547.13
2022-12-12T11:32:15.901Z,98542.94
2022-12-12T11:34:49.335Z,98544.66
2022-12-12T11:37:20.616Z,98549.69
2022-12-12T11:39:53.632Z,98551.69
2022-12-12T11:42:26.250Z,98545.22
2022-12-12T11:45:05.544Z,98551.50
2022-12-12T11:47:42.483Z,98549.44
2022-12-12T11:50:22.473Z,98541.97
2022-12-12T11:52:53.005Z,98550.22
2022-12-12T11:55:30.372Z,98551.72
2022-12-12T11:58:16.951Z,98545.50
2022-12-12T12:00:56.677Z,98555.00
2022-12-12T12:03:36.805Z,98549.41
2022-12-12T12:06:26.157Z,98549.44
2022-12-12T12:09:19.543Z,98556.03
2022-12-12T12:12:01.445Z,98550.75
2022-12-12T12:15:07.403Z,98555.63
2022-12-12T12:18:03.678Z,98558.75
2022-12-12T12:20:54.478Z,98552.31
2022-12-12T12:23:41.844Z,98553.78
2022-12-12T12:26:20.453Z,98549.81
2022-12-12T12:29:36.967Z,98544.44
2022-12-12T12:32:15.041Z,98552.97
2022-12-12T12:35:02.026Z,98541.41
2022-12-12T12:37:49.722Z,98545.09
2022-12-12T12:40:34.760Z,98548.56
2022-12-12T12:43:28.529Z,98555.03
2022-12-12T12:46:06.799Z,98550.22
2022-12-12T12:48:40.604Z,98558.94
2022-12-12T12:51:19.547Z,98563.31
2022-12-12T12:53:55.886Z,98548.97
2022-12-12T12:56:28.813Z,98553.72
2022-12-12T12:59:02.460Z,98546.75
2022-12-12T13:01:36.234Z,98552.75
2022-12-12T13:04:15.540Z,98551.44
2022-12-12T13:06:50.430Z,98543.03
2022-12-12T13:09:33.478Z,98545.50
2022-12-12T13:12:10.414Z,98553.09
2022-12-12T13:14:47.385Z,98554.75
2022-12-12T13:17:20.183Z,98561.50
2022-12-12T13:19:53.483Z,98555.63
2022-12-12T13:22:31.809Z,98562.56
2022-12-12T13:25:10.451Z,98563.69
2022-12-12T13:27:45.991Z,98563.16
2022-12-12T13:30:24.773Z,98556.47
2022-12-12T13:33:21.939Z,98560.84
2022-12-12T13:35:54.672Z,98572.19
2022-12-12T13:38:29.105Z,98565.34
2022-12-12T13:41:01.405Z,98564.75
2022-12-12T13:43:42.621Z,98568.44
2022-12-12T13:46:41.054Z,98566.69
2022-12-12T13:49:31.993Z,98578.00
2022-12-12T13:52:23.986Z,98588.28
2022-12-12T13:54:55.650Z,98578.38
2022-12-12T13:57:34.583Z,98591.25
2022-12-12T14:00:21.041Z,98575.91
2022-12-12T14:03:03.534Z,98588.63
2022-12-12T14:05:36.102Z,98579.69
2022-12-12T14:08:21.081Z,98589.25
2022-12-12T14:10:58.257Z,98595.47
2022-12-12T14:13:44.930Z,98589.13
2022-12-12T14:16:23.204Z,98601.75
2022-12-12T14:19:29.687Z,98597.03
2022-12-12T14:21:58.146Z,98601.16
2022-12-12T14:25:07.780Z,98606.00
2022-12-12T14:28:16.917Z,98612.97
2022-12-12T14:31:00.627Z,98602.56
2022-12-12T14:34:11.490Z,98605.53
2022-12-12T14:37:18.494Z,98614.47
2022-12-12T14:40:03.809Z,98618.84
2022-12-12T14:43:19.628Z,98616.72
2022-12-12T14:45:38.195Z,98620.72
2022-12-12T14:48:18.734Z,98610.38
2022-12-12T14:50:55.965Z,98615.78
2022-12-12T14:53:28.758Z,98605.16
2022-12-12T14:56:01.422Z,98612.69
2022-12-12T14:58:33.335Z,98615.88
2022-12-12T15:01:05.248Z,98612.56
2022-12-12T15:03:40.905Z,98611.97
2022-12-12T15:06:38.812Z,98607.25
2022-12-12T15:09:20.448Z,98614.22
2022-12-12T15:11:50.984Z,98619.84
2022-12-12T15:14:23.559Z,98628.22
2022-12-12T15:17:01.500Z,98620.94
2022-12-12T15:19:36.136Z,98625.28
2022-12-12T15:22:10.395Z,98633.78
2022-12-12T15:24:40.488Z,98631.91
2022-12-12T15:27:09.233Z,98636.25
2022-12-12T15:29:39.646Z,98632.97
2022-12-12T15:32:17.549Z,98636.97
2022-12-12T15:34:49.824Z,98628.22
2022-12-12T15:37:26.866Z,98638.03
2022-12-12T15:40:31.163Z,98632.03
2022-12-12T15:43:03.287Z,98641.22
2022-12-12T15:45:35.332Z,98641.22
2022-12-12T15:48:06.016Z,98632.03
2022-12-12T15:50:57.081Z,98630.34
2022-12-12T15:53:28.081Z,98639.31
2022-12-12T15:56:01.799Z,98645.78
2022-12-12T15:58:33.288Z,98654.16
2022-12-12T16:01:20.653Z,98648.38
2022-12-12T16:03:59.699Z,98652.41
2022-12-12T16:06:36.775Z,98655.56
2022-12-12T16:09:17.928Z,98657.69
2022-12-12T16:11:48.198Z,98664.97
2022-12-12T16:14:40.674Z,98668.97
2022-12-12T16:17:15.512Z,98660.84
2022-12-12T16:19:53.678Z,98678.16
2022-12-12T16:22:34.840Z,98679.22
2022-12-12T16:25:18.533Z,98676.13
2022-12-12T16:27:53.391Z,98686.78
2022-12-12T16:30:21.833Z,98686.53
2022-12-12T16:32:50.414Z,98690.91
2022-12-12T16:35:21.234Z,98687.13
2022-12-12T16:37:52.632Z,98682.09
2022-12-12T16:40:23.395Z,98687.25
2022-12-12T16:43:04.798Z,98691.03
2022-12-12T16:45:36.474Z,98697.28
2022-12-12T16:48:17.102Z,98700.81
2022-12-12T16:50:46.666Z,98706.25
2022-12-12T16:53:16.856Z,98702.69
2022-12-12T16:55:47.755Z,98693.97
2022-12-12T16:58:16.825Z,98696.91
2022-12-12T17:00:46.549Z,98699.03
2022-12-12T17:03:17.521Z,98698.44
2022-12-12T17:05:50.178Z,98710.78
2022-12-12T17:08:20.829Z,98710.63
2022-12-12T17:11:10.568Z,98713.81
2022-12-12T17:13:45.606Z,98722.66
2022-12-12T17:16:14.547Z,98721.44
2022-12-12T17:18:43.445Z,98730.63
2022-12-12T17:21:12.616Z,98728.75
2022-12-12T17:23:43.765Z,98738.75
2022-12-12T17:26:12.587Z,98735.00
2022-12-12T17:28:42.031Z,98737.47
2022-12-12T17:31:11.662Z,98742.06
2022-12-12T17:33:49.816Z,98738.91
2022-12-12T17:36:19.312Z,98742.66
2022-12-12T17:38:50.103Z,98747.03
2022-12-12T17:41:19.439Z,98738.06
2022-12-12T17:43:55.093Z,98745.16
2022-12-12T17:46:26.768Z,98752.66
2022-12-12T17:48:57.710Z,98749.94
2022-12-12T17:51:27.055Z,98737.72
2022-12-12T17:53:59.863Z,98754.41
2022-12-12T17:56:29.634Z,98753.81
2022-12-12T17:58:58.560Z,98741.75
2022-12-12T18:01:30.174Z,98754.09
2022-12-12T18:04:01.078Z,98746.66
2022-12-12T18:06:32.164Z,98746.50
2022-12-12T18:09:02.942Z,98756.38
2022-12-12T18:11:36.113Z,98758.94
2022-12-12T18:14:09.665Z,98761.47
2022-12-12T18:16:38.355Z,98759.19
2022-12-12T18:19:08.448Z,98754.25
2022-12-12T18:24:30.085Z,98770.56
2022-12-12T18:27:04.444Z,98767.25
2022-12-12T18:29:34.989Z,98773.97
2022-12-12T18:32:05.026Z,98775.59
2022-12-12T18:34:34.920Z,98777.47
2022-12-12T18:37:05.272Z,98787.50
2022-12-12T18:39:35.672Z,98792.91
2022-12-12T18:42:05.628Z,98789.38
2022-12-12T18:44:35.248Z,98780.63
2022-12-12T18:47:04.371Z,98803.56
2022-12-12T18:49:34.009Z,98806.28
2022-12-12T18:52:04.848Z,98802.13
2022-12-12T18:54:36.175Z,98807.78
2022-12-12T18:57:06.044Z,98809.84
2022-12-12T18:59:38.506Z,98813.03
2022-12-12T19:02:14.315Z,98817.00
2022-12-12T19:04:44.906Z,98818.25
2022-12-12T19:07:14.774Z,98816.81
2022-12-12T19:09:47.827Z,98809.75
2022-12-12T19:12:18.011Z,98814.56
2022-12-12T19:17:42.034Z,98808.97
2022-12-12T19:20:18.767Z,98814.59
2022-12-12T19:22:50.530Z,98826.50
2022-12-12T19:25:22.498Z,98830.25
2022-12-12T19:27:52.810Z,98833.78
2022-12-12T19:30:28.543Z,98831.91
2022-12-12T19:32:58.571Z,98838.34
2022-12-12T19:35:28.569Z,98831.91
2022-12-12T19:37:58.720Z,98838.97
2022-12-12T19:40:30.094Z,98834.63
2022-12-12T19:43:00.242Z,98834.63
2022-12-12T19:45:32.159Z,98845.44
2022-12-12T19:48:02.015Z,98845.44
2022-12-12T19:50:32.643Z,98843.53
2022-12-12T19:53:02.801Z,98850.03
2022-12-12T19:55:34.732Z,98851.06
2022-12-12T19:58:04.916Z,98852.13
2022-12-12T20:00:34.416Z,98854.00
2022-12-12T20:03:05.008Z,98852.94
2022-12-12T20:05:34.453Z,98854.00
2022-12-12T20:08:05.304Z,98858.56
2022-12-12T20:10:38.903Z,98861.50
2022-12-12T20:13:08.529Z,98866.91
2022-12-12T20:15:40.305Z,98866.91
2022-12-12T20:18:16.116Z,98867.13
2022-12-12T20:20:47.373Z,98858.19
2022-12-12T20:23:17.385Z,98864.63
2022-12-12T20:25:48.975Z,98864.03
2022-12-12T20:28:20.393Z,98863.41
2022-12-12T20:30:53.697Z,98872.56
2022-12-12T20:33:23.185Z,98872.81
2022-12-12T20:35:52.463Z,98871.13
2022-12-12T20:38:23.965Z,98864.91
2022-12-12T20:40:55.224Z,98871.34
2022-12-12T20:43:25.699Z,98874.06
2022-12-12T20:45:55.567Z,98875.09
2022-12-12T20:48:29.875Z,98876.75
2022-12-12T20:51:00.704Z,98875.94
2022-12-12T20:53:36.148Z,98866.16
2022-12-12T20:56:11.239Z,98873.69
2022-12-12T20:58:41.532Z,98870.13
2022-12-12T21:01:15.459Z,98877.41
2022-12-12T21:03:45.374Z,98877.41
2022-12-12T21:06:15.326Z,98880.97
2022-12-12T21:08:48.317Z,98891.97
2022-12-12T21:11:21.023Z,98894.50
2022-12-12T21:13:51.141Z,98899.66
2022-12-12T21:16:23.603Z,98906.75
2022-12-12T21:18:56.140Z,98911.94
2022-12-12T21:21:26.011Z,98910.06
2022-12-12T21:23:56.025Z,98910.25
2022-12-12T21:26:29.460Z,98908.19
2022-12-12T21:29:00.031Z,98915.25
2022-12-12T21:31:31.997Z,98905.50
2022-12-12T21:34:01.508Z,98906.53
2022-12-12T21:36:31.510Z,98911.09
2022-12-12T21:39:01.825Z,98908.41
2022-12-12T21:41:31.760Z,98909.47
2022-12-12T21:44:00.763Z,98907.78
2022-12-12T21:46:30.667Z,98900.72
2022-12-12T21:49:17.555Z,98909.88
2022-12-12T21:51:46.716Z,98905.72
2022-12-12T21:54:16.765Z,98907.00
2022-12-12T21:56:46.868Z,98915.09
2022-12-12T21:59:15.964Z,98912.63
2022-12-12T22:01:44.945Z,98916.59
2022-12-12T22:04:14.565Z,98922.84
2022-12-12T22:06:45.374Z,98926.56
2022-12-12T22:09:14.381Z,98926.81
2022-12-12T22:11:50.724Z,98925.97
2022-12-12T22:14:22.947Z,98931.59
2022-12-12T22:16:51.578Z,98926.19
2022-12-12T22:19:20.176Z,98930.75
2022-12-12T22:21:50.487Z,98924.75
2022-12-12T22:24:19.244Z,98920.34
2022-12-12T22:26:49.965Z,98928.28
2022-12-12T22:29:22.038Z,98929.31
2022-12-12T22:31:52.239Z,98925.78
2022-12-12T22:34:23.893Z,98929.53
2022-12-12T22:36:53.107Z,98933.03
2022-12-12T22:39:25.274Z,98938.69
2022-12-12T22:41:54.002Z,98945.97
2022-12-12T22:44:25.489Z,98946.19
2022-12-12T22:46:55.865Z,98950.97
2022-12-12T22:49:26.758Z,98950.38
2022-12-12T22:51:58.807Z,98948.69
2022-12-12T22:54:28.119Z,98955.16
2022-12-12T22:56:56.648Z,98949.94
2022-12-12T22:59:26.599Z,98953.72
2022-12-12T23:01:55.047Z,98945.78
2022-12-12T23:04:23.434Z,98952.03
2022-12-12T23:06:51.843Z,98956.63
2022-12-12T23:09:23.124Z,98953.09
2022-12-12T23:11:51.472Z,98958.69
2022-12-12T23:14:23.951Z,98955.38
2022-12-12T23:16:55.273Z,98958.31
2022-12-12T23:19:27.337Z,98953.94
2022-12-12T23:21:55.778Z,98952.06
2022-12-12T23:24:24.146Z,98951.44
2022-12-12T23:26:53.180Z,98951.88
2022-12-12T23:29:21.705Z,98959.38
2022-12-12T23:31:50.506Z,98952.28
2022-12-12T23:34:23.363Z,98957.91
2022-12-12T23:36:52.705Z,98965.41
2022-12-12T23:39:21.853Z,98956.69
2022-12-12T23:41:50.621Z,98955.84
2022-12-12T23:44:21.405Z,98962.50
2022-12-12T23:46:50.125Z,98958.16
2022-12-12T23:49:22.790Z,98963.75
2022-12-12T23:51:53.671Z,98962.91
2022-12-12T23:54:25.289Z,98964.81
2022-12-12T23:56:54.714Z,98962.31
2022-12-12T23:59:23.858Z,98956.09
